createdAt,value
2019-06-15T00:01:46.837Z,17.52
2019-06-15T00:04:17.500Z,17.48
2019-06-15T00:06:48.280Z,19.20
2019-06-15T00:09:19.625Z,18.87
2019-06-15T00:11:50.188Z,18.65
2019-06-15T00:14:20.881Z,19.42
2019-06-15T00:16:51.405Z,18.98
2019-06-15T00:19:21.945Z,20.52
2019-06-15T00:21:52.707Z,18.67
2019-06-15T00:24:34.987Z,18.77
2019-06-15T00:26:55.725Z,19.95
2019-06-15T00:29:26.356Z,20.43
2019-06-15T00:31:57.846Z,19.27
2019-06-15T00:34:29.189Z,18.40
2019-06-15T00:36:59.764Z,18.42
2019-06-15T00:39:30.288Z,19.80
2019-06-15T00:42:01.458Z,17.55
2019-06-15T00:44:32.282Z,16.55
2019-06-15T00:47:03.345Z,17.55
2019-06-15T00:49:34.796Z,17.87
2019-06-15T00:52:05.536Z,18.37
2019-06-15T00:54:49.728Z,19.87
2019-06-15T00:57:09.006Z,15.78
2019-06-15T00:59:39.647Z,18.95
2019-06-15T01:02:10.509Z,17.52
2019-06-15T01:04:41.031Z,17.40
2019-06-15T01:07:11.638Z,16.87
2019-06-15T01:09:42.361Z,15.40
2019-06-15T01:12:13.893Z,16.93
2019-06-15T01:14:44.484Z,18.02
2019-06-15T01:17:20.041Z,20.90
2019-06-15T01:19:50.550Z,18.42
2019-06-15T01:22:21.175Z,18.90
2019-06-15T01:25:04.891Z,17.95
2019-06-15T01:27:24.635Z,18.20
2019-06-15T01:29:55.448Z,17.02
2019-06-15T01:32:26.708Z,17.25
2019-06-15T01:34:57.329Z,15.83
2019-06-15T01:37:28.011Z,15.78
2019-06-15T01:39:58.582Z,15.70
2019-06-15T01:42:29.849Z,17.30
2019-06-15T01:45:01.262Z,18.12
2019-06-15T01:47:31.826Z,16.50
2019-06-15T01:50:02.986Z,14.10
2019-06-15T01:52:34.882Z,16.87
2019-06-15T01:55:17.436Z,17.82
2019-06-15T01:57:38.143Z,17.23
2019-06-15T02:00:11.747Z,14.60
2019-06-15T02:02:42.365Z,17.87
2019-06-15T02:05:13.017Z,17.20
2019-06-15T02:07:43.646Z,16.12
2019-06-15T02:10:17.201Z,14.55
2019-06-15T02:12:47.787Z,15.53
2019-06-15T02:15:18.472Z,14.07
2019-06-15T02:17:49.761Z,17.45
2019-06-15T02:20:20.793Z,15.70
2019-06-15T02:22:53.493Z,14.30
2019-06-15T02:25:35.489Z,13.83
2019-06-15T02:27:57.619Z,13.85
2019-06-15T02:30:30.834Z,17.87
2019-06-15T02:33:01.864Z,14.93
2019-06-15T02:35:32.946Z,16.85
2019-06-15T02:38:04.655Z,18.65
2019-06-15T02:40:35.364Z,15.63
2019-06-15T02:43:06.447Z,14.00
2019-06-15T02:45:37.005Z,15.35
2019-06-15T02:48:07.922Z,16.90
2019-06-15T02:50:38.948Z,18.67
2019-06-15T02:53:14.331Z,17.50
2019-06-15T02:55:50.510Z,17.85
2019-06-15T02:58:20.133Z,15.60
2019-06-15T03:01:04.540Z,17.55
2019-06-15T03:03:36.383Z,14.60
2019-06-15T03:06:07.323Z,13.60
2019-06-15T03:08:38.248Z,14.30
2019-06-15T03:11:09.177Z,14.23
2019-06-15T03:13:39.723Z,15.95
2019-06-15T03:16:10.254Z,13.98
2019-06-15T03:18:40.974Z,13.62
2019-06-15T03:21:11.629Z,13.22
2019-06-15T03:23:42.248Z,14.47
2019-06-15T03:26:14.187Z,18.90
2019-06-15T03:28:45.091Z,14.68
2019-06-15T03:31:16.663Z,16.37
2019-06-15T03:33:47.172Z,15.75
2019-06-15T03:36:18.110Z,16.48
2019-06-15T03:38:49.094Z,15.78
2019-06-15T03:41:22.152Z,18.62
2019-06-15T03:43:53.539Z,19.92
2019-06-15T03:46:24.123Z,16.80
2019-06-15T03:48:55.526Z,14.25
2019-06-15T03:51:26.681Z,23.80
2019-06-15T03:53:57.369Z,14.15
2019-06-15T03:56:29.705Z,15.20
2019-06-15T03:59:00.367Z,17.40
2019-06-15T04:01:37.091Z,14.03
2019-06-15T04:04:07.988Z,14.75
2019-06-15T04:06:38.919Z,15.43
2019-06-15T04:09:09.662Z,14.63
2019-06-15T04:11:40.231Z,13.15
2019-06-15T04:14:11.629Z,15.83
2019-06-15T04:16:42.318Z,14.68
2019-06-15T04:19:13.115Z,14.10
2019-06-15T04:21:43.705Z,13.55
2019-06-15T04:24:14.756Z,15.93
2019-06-15T04:26:45.424Z,14.83
2019-06-15T04:29:16.371Z,14.07
2019-06-15T04:31:46.967Z,12.63
2019-06-15T04:34:18.352Z,14.53
2019-06-15T04:36:48.988Z,17.00
2019-06-15T04:39:19.786Z,14.93
2019-06-15T04:41:50.412Z,16.80
2019-06-15T04:44:26.271Z,14.87
2019-06-15T04:47:02.442Z,14.43
2019-06-15T04:49:30.090Z,14.55
2019-06-15T04:52:01.580Z,15.28
2019-06-15T04:54:32.681Z,14.07
2019-06-15T04:57:05.779Z,15.63
2019-06-15T04:59:37.291Z,16.80
2019-06-15T05:02:07.880Z,14.95
2019-06-15T05:04:38.511Z,14.28
2019-06-15T05:07:09.101Z,13.80
2019-06-15T05:09:40.022Z,14.60
2019-06-15T05:12:10.710Z,13.28
2019-06-15T05:14:42.380Z,13.87
2019-06-15T05:17:12.904Z,13.47
2019-06-15T05:19:43.978Z,14.53
2019-06-15T05:22:14.859Z,14.53
2019-06-15T05:24:45.680Z,14.58
2019-06-15T05:27:16.342Z,13.27
2019-06-15T05:29:47.010Z,16.40
2019-06-15T05:32:19.947Z,14.03
2019-06-15T05:34:54.238Z,16.32
2019-06-15T05:37:24.737Z,14.07
2019-06-15T05:39:55.491Z,15.93
2019-06-15T05:42:26.728Z,15.70
2019-06-15T05:44:58.025Z,16.45
2019-06-15T05:47:28.715Z,13.70
2019-06-15T05:49:59.450Z,15.48
2019-06-15T05:52:30.344Z,13.70
2019-06-15T05:55:01.557Z,15.17
2019-06-15T05:57:32.109Z,14.18
2019-06-15T06:00:03.062Z,16.17
2019-06-15T06:02:34.360Z,16.10
2019-06-15T06:05:06.707Z,14.20
2019-06-15T06:07:37.288Z,16.32
2019-06-15T06:10:10.777Z,14.93
2019-06-15T06:12:40.708Z,16.13
2019-06-15T06:15:11.904Z,15.93
2019-06-15T06:17:42.545Z,14.30
2019-06-15T06:20:14.684Z,14.07
2019-06-15T06:22:45.387Z,13.98
2019-06-15T06:25:16.648Z,10.82
2019-06-15T06:27:47.191Z,14.20
2019-06-15T06:30:17.984Z,14.70
2019-06-15T06:32:48.653Z,14.05
2019-06-15T06:35:20.662Z,13.50
2019-06-15T06:37:51.318Z,15.00
2019-06-15T06:40:21.789Z,16.97
2019-06-15T06:42:52.294Z,14.10
2019-06-15T06:45:23.478Z,14.35
2019-06-15T06:47:55.329Z,17.13
2019-06-15T06:50:26.481Z,13.48
2019-06-15T06:52:56.983Z,14.80
2019-06-15T06:55:27.657Z,15.00
2019-06-15T06:57:58.232Z,14.38
2019-06-15T07:00:28.779Z,13.43
2019-06-15T07:02:59.713Z,13.58
2019-06-15T07:05:30.397Z,13.48
2019-06-15T07:08:01.576Z,16.30
2019-06-15T07:10:32.317Z,16.48
2019-06-15T07:13:05.317Z,13.88
2019-06-15T07:15:36.285Z,14.20
2019-06-15T07:18:07.177Z,13.22
2019-06-15T07:20:37.701Z,18.42
2019-06-15T07:23:08.260Z,14.45
2019-06-15T07:25:39.410Z,15.70
2019-06-15T07:28:12.776Z,16.07
2019-06-15T07:30:44.365Z,13.40
2019-06-15T07:33:15.472Z,14.43
2019-06-15T07:35:46.148Z,15.80
2019-06-15T07:38:17.117Z,16.83
2019-06-15T07:40:48.192Z,16.42
2019-06-15T07:43:19.742Z,14.23
2019-06-15T07:45:51.298Z,16.65
2019-06-15T07:48:23.086Z,15.32
2019-06-15T07:50:53.999Z,15.13
2019-06-15T07:53:24.946Z,16.57
2019-06-15T07:55:55.648Z,13.72
2019-06-15T07:58:26.206Z,16.80
2019-06-15T08:00:56.970Z,12.35
2019-06-15T08:03:28.552Z,14.20
2019-06-15T08:05:59.616Z,15.60
2019-06-15T08:08:30.785Z,17.70
2019-06-15T08:11:01.710Z,17.17
2019-06-15T08:13:32.292Z,15.15
2019-06-15T08:16:03.499Z,15.98
2019-06-15T08:18:34.678Z,12.07
2019-06-15T08:21:06.296Z,15.35
2019-06-15T08:23:38.077Z,15.20
2019-06-15T08:26:09.160Z,18.73
2019-06-15T08:28:40.706Z,15.20
2019-06-15T08:31:11.545Z,14.60
2019-06-15T08:33:42.643Z,15.15
2019-06-15T08:36:13.290Z,15.40
2019-06-15T08:38:43.944Z,16.60
2019-06-15T08:41:15.365Z,17.62
2019-06-15T08:43:46.145Z,15.50
2019-06-15T08:46:17.501Z,18.10
2019-06-15T08:48:48.203Z,15.73
2019-06-15T08:51:19.244Z,14.03
2019-06-15T08:53:49.898Z,17.05
2019-06-15T08:56:20.459Z,12.93
2019-06-15T08:58:55.622Z,18.37
2019-06-15T09:01:24.630Z,16.30
2019-06-15T09:03:55.277Z,17.73
2019-06-15T09:06:25.894Z,15.08
2019-06-15T09:08:56.647Z,18.73
2019-06-15T09:11:27.948Z,14.58
2019-06-15T09:13:58.647Z,18.70
2019-06-15T09:16:29.722Z,16.85
2019-06-15T09:19:00.320Z,13.72
2019-06-15T09:21:32.636Z,18.57
2019-06-15T09:24:03.556Z,14.78
2019-06-15T09:26:34.941Z,15.78
2019-06-15T09:29:11.352Z,14.78
2019-06-15T09:31:38.187Z,17.07
2019-06-15T09:34:18.481Z,18.15
2019-06-15T09:36:42.734Z,17.80
2019-06-15T09:39:14.685Z,15.13
2019-06-15T09:41:45.671Z,12.30
2019-06-15T09:44:16.654Z,13.70
2019-06-15T09:46:47.764Z,16.70
2019-06-15T09:49:18.308Z,22.98
2019-06-15T09:51:48.924Z,15.18
2019-06-15T09:54:19.706Z,15.65
2019-06-15T09:56:50.320Z,17.48
2019-06-15T09:59:26.059Z,16.85
2019-06-15T10:01:53.401Z,14.83
2019-06-15T10:04:24.031Z,18.05
2019-06-15T10:06:55.644Z,17.50
2019-06-15T10:09:26.407Z,17.00
2019-06-15T10:11:56.979Z,16.23
2019-06-15T10:14:28.012Z,15.08
2019-06-15T10:16:59.818Z,17.35
2019-06-15T10:19:30.550Z,17.23
2019-06-15T10:22:01.671Z,17.83
2019-06-15T10:24:32.728Z,19.48
2019-06-15T10:27:03.572Z,15.95
2019-06-15T10:29:41.844Z,19.25
2019-06-15T10:32:07.493Z,18.65
2019-06-15T10:34:38.233Z,21.42
2019-06-15T10:37:08.954Z,19.85
2019-06-15T10:39:40.220Z,16.27
2019-06-15T10:42:10.822Z,16.32
2019-06-15T10:44:41.460Z,17.42
2019-06-15T10:47:12.509Z,17.23
2019-06-15T10:49:43.145Z,17.60
2019-06-15T10:52:13.769Z,17.57
2019-06-15T10:54:45.661Z,18.57
2019-06-15T10:57:16.240Z,17.50
2019-06-15T10:59:56.834Z,15.85
2019-06-15T11:02:19.144Z,16.23
2019-06-15T11:04:49.766Z,17.73
2019-06-15T11:07:20.379Z,17.60
2019-06-15T11:09:50.973Z,18.05
2019-06-15T11:12:21.695Z,15.18
2019-06-15T11:14:52.835Z,19.90
2019-06-15T11:17:23.515Z,18.77
2019-06-15T11:19:55.328Z,16.27
2019-06-15T11:22:26.373Z,17.37
2019-06-15T11:24:57.071Z,16.02
2019-06-15T11:27:27.735Z,17.70
2019-06-15T11:30:12.574Z,19.92
2019-06-15T11:32:31.199Z,18.07
2019-06-15T11:35:04.241Z,20.23
2019-06-15T11:37:35.509Z,16.77
2019-06-15T11:40:06.332Z,16.73
2019-06-15T11:42:37.649Z,19.40
2019-06-15T11:45:08.635Z,14.83
2019-06-15T11:47:39.540Z,16.70
2019-06-15T11:50:12.019Z,14.00
2019-06-15T11:52:43.399Z,14.95
2019-06-15T11:55:14.175Z,18.80
2019-06-15T11:57:44.824Z,18.40
2019-06-15T12:00:30.440Z,15.45
2019-06-15T12:02:48.176Z,15.70
2019-06-15T12:05:18.997Z,18.65
2019-06-15T12:07:49.604Z,18.23
2019-06-15T12:10:20.705Z,18.60
2019-06-15T12:12:51.387Z,18.63
2019-06-15T12:15:22.296Z,13.35
2019-06-15T12:17:52.864Z,15.32
2019-06-15T12:20:23.816Z,19.20
2019-06-15T12:22:56.695Z,19.37
2019-06-15T12:25:27.552Z,17.98
2019-06-15T12:27:58.490Z,17.67
2019-06-15T12:30:47.375Z,19.00
2019-06-15T12:33:14.648Z,28.87
2019-06-15T12:35:45.571Z,25.92
2019-06-15T12:38:16.570Z,15.93
2019-06-15T12:40:47.620Z,20.60
2019-06-15T12:43:19.212Z,17.98
2019-06-15T12:45:49.922Z,16.37
2019-06-15T12:48:20.882Z,21.23
2019-06-15T12:50:51.740Z,17.17
2019-06-15T12:53:22.524Z,16.65
2019-06-15T12:55:53.947Z,18.30
2019-06-15T12:58:24.726Z,17.07
2019-06-15T13:01:02.739Z,18.23
2019-06-15T13:03:27.707Z,13.70
2019-06-15T13:05:58.854Z,19.05
2019-06-15T13:08:29.629Z,16.73
2019-06-15T13:11:00.322Z,15.28
2019-06-15T13:13:30.934Z,18.77
2019-06-15T13:16:01.511Z,15.23
2019-06-15T13:18:32.930Z,17.60
2019-06-15T13:21:03.582Z,16.23
2019-06-15T13:23:34.132Z,16.02
2019-06-15T13:26:04.858Z,15.75
2019-06-15T13:28:36.530Z,17.15
2019-06-15T13:31:17.738Z,17.48
2019-06-15T13:33:40.610Z,20.30
2019-06-15T13:36:12.593Z,16.60
2019-06-15T13:38:43.371Z,13.50
2019-06-15T13:41:14.082Z,18.45
2019-06-15T13:43:44.715Z,15.50
2019-06-15T13:46:15.321Z,19.17
2019-06-15T13:48:46.253Z,19.03
2019-06-15T13:51:16.991Z,18.00
2019-06-15T13:53:47.593Z,16.87
2019-06-15T13:56:18.591Z,14.98
2019-06-15T13:58:49.243Z,16.17
2019-06-15T14:01:33.310Z,16.60
2019-06-15T14:03:52.215Z,17.23
2019-06-15T14:06:22.982Z,18.62
2019-06-15T14:08:54.307Z,16.17
2019-06-15T14:11:25.274Z,16.77
2019-06-15T14:13:56.831Z,15.25
2019-06-15T14:16:27.453Z,16.42
2019-06-15T14:18:58.158Z,14.03
2019-06-15T14:21:29.086Z,14.47
2019-06-15T14:23:59.760Z,17.80
2019-06-15T14:26:30.501Z,16.55
2019-06-15T14:29:02.916Z,18.42
2019-06-15T14:31:46.640Z,14.70
2019-06-15T14:34:06.699Z,16.55
2019-06-15T14:36:37.983Z,17.77
2019-06-15T14:39:08.981Z,16.47
2019-06-15T14:41:40.062Z,16.20
2019-06-15T14:44:10.676Z,13.83
2019-06-15T14:46:42.229Z,16.85
2019-06-15T14:49:13.774Z,18.25
2019-06-15T14:51:44.506Z,16.17
2019-06-15T14:54:16.178Z,15.00
2019-06-15T14:56:46.983Z,15.13
2019-06-15T14:59:17.720Z,16.07
2019-06-15T15:01:48.371Z,14.87
2019-06-15T15:04:20.948Z,18.80
2019-06-15T15:06:51.685Z,17.57
2019-06-15T15:09:22.445Z,19.53
2019-06-15T15:11:53.358Z,20.50
2019-06-15T15:14:26.023Z,17.07
2019-06-15T15:16:57.162Z,15.65
2019-06-15T15:19:28.401Z,16.20
2019-06-15T15:21:59.590Z,16.33
2019-06-15T15:24:30.592Z,17.10
2019-06-15T15:27:01.558Z,17.35
2019-06-15T15:29:32.290Z,16.73
2019-06-15T15:32:23.976Z,15.85
2019-06-15T15:34:45.284Z,17.60
2019-06-15T15:37:17.057Z,15.80
2019-06-15T15:39:47.570Z,19.35
2019-06-15T15:42:19.393Z,16.15
2019-06-15T15:44:49.993Z,15.97
2019-06-15T15:47:20.657Z,17.25
2019-06-15T15:49:53.141Z,16.67
2019-06-15T15:52:26.591Z,17.48
2019-06-15T15:54:56.757Z,15.75
2019-06-15T15:57:29.406Z,14.80
2019-06-15T15:59:59.862Z,17.13
2019-06-15T16:02:44.640Z,15.20
2019-06-15T16:05:06.229Z,14.73
2019-06-15T16:07:36.916Z,15.90
2019-06-15T16:10:12.295Z,13.33
2019-06-15T16:12:43.076Z,14.18
2019-06-15T16:15:15.865Z,14.00
2019-06-15T16:17:49.894Z,15.35
2019-06-15T16:20:22.931Z,12.28
2019-06-15T16:22:56.410Z,15.03
2019-06-15T16:25:28.195Z,14.03
2019-06-15T16:27:59.175Z,14.83
2019-06-15T16:30:59.454Z,15.83
2019-06-15T16:33:08.104Z,16.12
2019-06-15T16:35:39.005Z,12.53
2019-06-15T16:38:09.981Z,13.18
2019-06-15T16:40:41.183Z,15.58
2019-06-15T16:43:12.775Z,14.90
2019-06-15T16:45:46.647Z,10.65
2019-06-15T16:48:22.356Z,18.17
2019-06-15T16:50:54.277Z,11.95
2019-06-15T16:53:26.023Z,15.50
2019-06-15T16:55:56.980Z,13.25
2019-06-15T16:58:27.839Z,14.17
2019-06-15T17:00:58.450Z,16.32
2019-06-15T17:03:29.772Z,13.60
2019-06-15T17:06:03.363Z,16.15
2019-06-15T17:08:33.257Z,14.13
2019-06-15T17:11:06.563Z,18.17
2019-06-15T17:13:37.154Z,15.32
2019-06-15T17:16:10.461Z,9.85
2019-06-15T17:18:41.929Z,13.55
2019-06-15T17:21:17.449Z,12.03
2019-06-15T17:23:49.340Z,12.43
2019-06-15T17:26:19.982Z,11.30
2019-06-15T17:28:50.713Z,12.90
2019-06-15T17:31:21.307Z,12.00
2019-06-15T17:33:52.767Z,11.73
2019-06-15T17:36:23.429Z,11.75
2019-06-15T17:38:56.881Z,10.23
2019-06-15T17:41:26.788Z,11.80
2019-06-15T17:43:57.457Z,14.55
2019-06-15T17:46:29.891Z,12.30
2019-06-15T17:49:00.953Z,14.23
2019-06-15T17:51:32.751Z,19.42
2019-06-15T17:54:06.158Z,14.07
2019-06-15T17:56:36.834Z,14.35
2019-06-15T17:59:07.726Z,9.75
2019-06-15T18:01:38.800Z,9.50
2019-06-15T18:04:09.508Z,12.90
2019-06-15T18:06:46.873Z,11.70
2019-06-15T18:09:27.571Z,17.20
2019-06-15T18:12:00.445Z,14.83
2019-06-15T18:14:31.737Z,12.58
2019-06-15T18:17:02.256Z,11.88
2019-06-15T18:19:33.567Z,12.80
2019-06-15T18:22:07.241Z,12.40
2019-06-15T18:24:38.126Z,13.50
2019-06-15T18:27:09.664Z,10.53
2019-06-15T18:29:42.647Z,16.27
2019-06-15T18:32:13.317Z,12.88
2019-06-15T18:34:46.298Z,11.22
2019-06-15T18:37:17.289Z,13.83
2019-06-15T18:39:48.150Z,13.15
2019-06-15T18:42:19.186Z,11.40
2019-06-15T18:44:53.074Z,12.33
2019-06-15T18:47:26.683Z,12.10
2019-06-15T18:49:59.227Z,13.25
2019-06-15T18:52:30.928Z,11.55
2019-06-15T18:55:02.089Z,13.30
2019-06-15T18:57:32.913Z,9.60
2019-06-15T19:00:03.971Z,9.73
2019-06-15T19:02:39.302Z,10.57
2019-06-15T19:05:10.624Z,12.30
2019-06-15T19:07:42.686Z,10.43
2019-06-15T19:10:16.592Z,10.70
2019-06-15T19:12:49.087Z,11.08
2019-06-15T19:15:20.513Z,11.22
2019-06-15T19:17:51.490Z,11.12
2019-06-15T19:20:22.941Z,11.25
2019-06-15T19:22:56.086Z,10.63
2019-06-15T19:25:27.007Z,13.03
2019-06-15T19:27:57.712Z,10.23
2019-06-15T19:30:28.376Z,11.38
2019-06-15T19:33:01.709Z,12.07
2019-06-15T19:35:32.520Z,11.90
2019-06-15T19:38:06.045Z,20.80
2019-06-15T19:40:37.965Z,14.43
2019-06-15T19:43:08.848Z,10.80
2019-06-15T19:45:39.382Z,10.60
2019-06-15T19:48:09.974Z,12.05
2019-06-15T19:50:40.669Z,10.45
2019-06-15T19:53:11.263Z,10.80
2019-06-15T19:55:41.954Z,11.65
2019-06-15T19:58:12.587Z,9.23
2019-06-15T20:00:43.557Z,11.77
2019-06-15T20:03:17.716Z,12.63
2019-06-15T20:05:49.815Z,10.58
2019-06-15T20:08:21.768Z,10.65
2019-06-15T20:10:53.144Z,10.77
2019-06-15T20:13:24.736Z,14.78
2019-06-15T20:15:57.275Z,10.90
2019-06-15T20:21:11.571Z,13.40
2019-06-15T20:23:42.565Z,10.33
2019-06-15T20:26:13.250Z,10.05
2019-06-15T20:28:48.385Z,12.90
2019-06-15T20:31:19.259Z,11.77
2019-06-15T20:33:52.318Z,12.73
2019-06-15T20:36:23.288Z,14.28
2019-06-15T20:38:56.196Z,11.30
2019-06-15T20:41:28.843Z,12.80
2019-06-15T20:44:00.184Z,12.90
2019-06-15T20:46:36.920Z,8.40
2019-06-15T20:49:06.678Z,12.03
2019-06-15T20:51:40.760Z,12.70
2019-06-15T20:54:16.833Z,13.48
2019-06-15T20:56:49.699Z,12.68
2019-06-15T20:59:20.270Z,11.65
2019-06-15T21:01:51.422Z,11.80
2019-06-15T21:04:21.912Z,14.35
2019-06-15T21:06:52.518Z,11.70
2019-06-15T21:09:23.148Z,12.20
2019-06-15T21:12:00.108Z,13.18
2019-06-15T21:14:36.085Z,12.23
2019-06-15T21:17:06.754Z,12.70
2019-06-15T21:19:42.099Z,13.03
2019-06-15T21:22:13.503Z,12.75
2019-06-15T21:24:46.327Z,11.95
2019-06-15T21:27:17.163Z,14.93
2019-06-15T21:29:48.741Z,15.70
2019-06-15T21:32:19.652Z,12.77
2019-06-15T21:34:50.325Z,12.63
2019-06-15T21:37:20.871Z,13.53
2019-06-15T21:39:51.434Z,12.07
2019-06-15T21:42:22.055Z,12.90
2019-06-15T21:44:52.563Z,13.75
2019-06-15T21:47:23.114Z,14.47
2019-06-15T21:49:55.668Z,12.93
2019-06-15T21:52:26.677Z,14.28
2019-06-15T21:54:57.207Z,13.20
2019-06-15T21:57:28.226Z,14.38
2019-06-15T21:59:58.855Z,12.07
2019-06-15T22:02:29.623Z,14.60
2019-06-15T22:05:00.327Z,12.67
2019-06-15T22:07:30.809Z,12.68
2019-06-15T22:10:02.065Z,12.15
2019-06-15T22:12:32.738Z,10.73
2019-06-15T22:15:03.300Z,11.73
2019-06-15T22:17:36.936Z,11.35
2019-06-15T22:20:07.448Z,12.73
2019-06-15T22:22:38.188Z,10.13
2019-06-15T22:25:08.816Z,11.03
2019-06-15T22:27:39.415Z,15.28
2019-06-15T22:30:11.328Z,10.78
2019-06-15T22:32:42.042Z,11.80
2019-06-15T22:35:16.370Z,11.65
2019-06-15T22:37:46.926Z,11.90
2019-06-15T22:40:17.405Z,11.35
2019-06-15T22:42:51.117Z,10.55
2019-06-15T22:45:21.985Z,10.10
2019-06-15T22:47:52.535Z,12.90
2019-06-15T22:50:27.681Z,10.78
2019-06-15T22:53:09.173Z,12.60
2019-06-15T22:55:46.486Z,13.67
2019-06-15T22:58:18.035Z,12.90
2019-06-15T23:00:50.063Z,14.40
2019-06-15T23:03:28.314Z,11.68
2019-06-15T23:06:00.837Z,12.15
2019-06-15T23:08:36.313Z,12.05
2019-06-15T23:11:08.443Z,12.20
2019-06-15T23:13:41.362Z,13.15
2019-06-15T23:16:12.342Z,14.13
2019-06-15T23:18:43.340Z,12.53
2019-06-15T23:21:14.176Z,10.50
2019-06-15T23:23:46.945Z,13.53
2019-06-15T23:26:17.060Z,13.30
2019-06-15T23:28:47.785Z,13.43
2019-06-15T23:31:18.362Z,12.07
2019-06-15T23:33:49.285Z,11.75
2019-06-15T23:36:26.941Z,14.60
2019-06-15T23:38:57.418Z,20.40
2019-06-15T23:41:28.706Z,13.53
2019-06-15T23:43:59.888Z,27.40
2019-06-15T23:46:30.573Z,22.93
2019-06-15T23:49:01.971Z,22.95
2019-06-15T23:51:33.969Z,31.65
2019-06-15T23:54:04.613Z,18.15
2019-06-15T23:56:36.867Z,13.23
2019-06-15T23:59:07.519Z,11.35
